KTVI/TVI METAR and TAF weather

Enter ICAO airport designator
Station Type Date Time Source
KTVI METAR 2021/09/27 06:55 UTC NOAA

KTVI 270655Z AUTO 00000KT 10SM CLR 18/17 A3012 RMK AO2


Station Type Date Time Source
KTVI Decoded METAR 2021/09/27 06:55 UTC NOAA

Thomasville, GA, United States (KTVI) 30-54-06N 083-52-53W
Sep 27, 2021 - 02:55 AM EDT / 2021.09.27 0655 UTC
Wind: Calm:0
Visibility: 10 mile(s):0
Sky conditions: clear
Temperature: 64 F (18 C)
Dew Point: 62 F (17 C)
Relative Humidity: 93%
Pressure (altimeter): 30.12 in. Hg (1019 hPa)
ob: KTVI 270655Z AUTO 00000KT 10SM CLR 18/17 A3012 RMK AO2
cycle: 7

Station Type Date Time Source
KTVI TAF UTC NOAA

Error!

Example: see airport list